Terminal Aerodrome Forecast
Issued by NWS

Home | Current Version | Previous Version | Text Only | Print | Product List | Glossary On
Versions: 1 2 3 4 5 6 7 8 9 10 11 12 13 14 15 16 17 18 19 20 21 22 23 24 25 26 27 28 29 30 31 32 33 34 35 36
000
FTUS43 KLSX 270645 AAA
TAFUIN
TAF AMD
KUIN 270645Z 2707/2806 06007KT P6SM VCTS SCT010 OVC030CB
      TEMPO 2707/2708 VRB10G25KT 1SM +TSRA OVC010CB
     FM270900 13005KT 5SM BR BKN025
     FM271400 20007KT P6SM SCT040 BKN120
     FM280100 VRB04KT P6SM FEW050 BKN250=

USA.gov is the U.S. government's official web portal to all federal, state and local government web resources and services.